createdAt,value
2016-10-20T00:00:19.728Z,1000.99
2016-10-20T00:00:41.458Z,1000.96
2016-10-20T00:01:03.171Z,1000.87
2016-10-20T00:01:24.890Z,1000.91
2016-10-20T00:01:46.626Z,1000.91
2016-10-20T00:02:08.359Z,1000.85
2016-10-20T00:02:30.083Z,1001.09
2016-10-20T00:02:51.812Z,1001.01
2016-10-20T00:03:13.572Z,1000.84
2016-10-20T00:03:35.436Z,1000.85
2016-10-20T00:03:57.153Z,1000.99
2016-10-20T00:04:18.873Z,1000.85
2016-10-20T00:04:40.595Z,1000.84
2016-10-20T00:05:02.309Z,1000.98
2016-10-20T00:05:24.028Z,1001.10
2016-10-20T00:05:45.750Z,1001.03
2016-10-20T00:06:07.465Z,1001.06
2016-10-20T00:06:29.208Z,1001.06
2016-10-20T00:06:50.933Z,1000.91
2016-10-20T00:07:12.659Z,1000.94
2016-10-20T00:07:34.385Z,1000.87
2016-10-20T00:07:56.215Z,1000.87
2016-10-20T00:08:17.937Z,1000.99
2016-10-20T00:08:39.664Z,1000.77
2016-10-20T00:09:02.383Z,1000.88
2016-10-20T00:09:24.104Z,1000.89
2016-10-20T00:09:45.828Z,1000.94
2016-10-20T00:10:07.559Z,1000.93
2016-10-20T00:10:29.278Z,1001.02
2016-10-20T00:10:51.004Z,1001.08
2016-10-20T00:11:12.724Z,1000.95
2016-10-20T00:11:34.445Z,1000.97
2016-10-20T00:11:56.170Z,1000.86
2016-10-20T00:12:17.892Z,1000.99
2016-10-20T00:12:39.612Z,1001.07
2016-10-20T00:13:01.333Z,1000.96
2016-10-20T00:13:23.058Z,1000.93
2016-10-20T00:13:44.778Z,1000.91
2016-10-20T00:14:06.497Z,1000.83
2016-10-20T00:14:28.228Z,1001.04
2016-10-20T00:14:49.954Z,1000.89
2016-10-20T00:15:11.676Z,1000.85
2016-10-20T00:15:33.408Z,1000.79
2016-10-20T00:15:59.900Z,1000.82
2016-10-20T00:16:21.615Z,1000.99
2016-10-20T00:16:43.330Z,1000.95
2016-10-20T00:17:05.043Z,1000.97
2016-10-20T00:17:26.762Z,1001.00
2016-10-20T00:17:48.478Z,1001.02
2016-10-20T00:18:10.204Z,1000.91
2016-10-20T00:18:31.934Z,1000.90
2016-10-20T00:18:53.663Z,1000.96
2016-10-20T00:19:15.388Z,1000.91
2016-10-20T00:19:37.105Z,1001.02
2016-10-20T00:19:58.827Z,1000.95
2016-10-20T00:20:20.558Z,1001.12
2016-10-20T00:20:42.287Z,1001.04
2016-10-20T00:21:04.011Z,1000.88
2016-10-20T00:21:25.728Z,1000.94
2016-10-20T00:21:47.449Z,1000.88
2016-10-20T00:22:09.169Z,1000.83
2016-10-20T00:22:30.894Z,1001.02
2016-10-20T00:22:52.613Z,1001.10
2016-10-20T00:23:14.355Z,1000.92
2016-10-20T00:23:36.077Z,1000.96
2016-10-20T00:23:57.795Z,1000.99
2016-10-20T00:24:19.515Z,1000.99
2016-10-20T00:24:41.240Z,1000.75
2016-10-20T00:25:02.960Z,1000.90
2016-10-20T00:25:24.677Z,1000.83
2016-10-20T00:26:17.663Z,1001.00
2016-10-20T00:26:39.387Z,1000.93
2016-10-20T00:27:01.106Z,1000.85
2016-10-20T00:27:22.828Z,1000.81
2016-10-20T00:27:44.544Z,1000.86
2016-10-20T00:28:06.279Z,1000.96
2016-10-20T00:28:28.001Z,1000.79
2016-10-20T00:28:49.728Z,1001.01
2016-10-20T00:29:11.450Z,1001.05
2016-10-20T00:29:33.169Z,1000.84
2016-10-20T00:29:54.886Z,1000.93
2016-10-20T00:30:16.604Z,1001.00
2016-10-20T00:30:38.327Z,1000.93
2016-10-20T00:31:00.052Z,1000.80
2016-10-20T00:31:21.799Z,1000.86
2016-10-20T00:31:43.520Z,1000.90
2016-10-20T00:32:05.252Z,1000.95
2016-10-20T00:32:26.986Z,1000.72
2016-10-20T00:32:48.709Z,1000.82
2016-10-20T00:33:10.423Z,1000.82
2016-10-20T00:33:32.143Z,1000.91
2016-10-20T00:33:53.864Z,1000.93
2016-10-20T00:34:15.592Z,1000.94
2016-10-20T00:34:37.315Z,1000.83
2016-10-20T00:34:59.036Z,1000.81
2016-10-20T00:35:20.767Z,1000.89
2016-10-20T00:35:42.479Z,1000.81
2016-10-20T00:36:04.197Z,1000.89
2016-10-20T00:36:25.918Z,1000.87
2016-10-20T00:36:47.653Z,1000.90
2016-10-20T00:37:09.381Z,1000.85
2016-10-20T00:37:31.105Z,1000.77
2016-10-20T00:37:52.835Z,1000.94
2016-10-20T00:38:14.552Z,1000.85
2016-10-20T00:38:36.272Z,1000.85
2016-10-20T00:38:57.999Z,1001.03
2016-10-20T00:39:19.721Z,1000.88
2016-10-20T00:39:41.443Z,1000.83
2016-10-20T00:40:03.175Z,1000.88
2016-10-20T00:40:24.900Z,1000.82
2016-10-20T00:40:46.627Z,1000.96
2016-10-20T00:41:08.391Z,1000.90
2016-10-20T00:41:30.111Z,1001.03
2016-10-20T00:41:51.836Z,1000.95
2016-10-20T00:42:13.546Z,1000.91
2016-10-20T00:42:35.265Z,1000.85
2016-10-20T00:42:57.005Z,1000.86
2016-10-20T00:43:18.731Z,1000.82
2016-10-20T00:43:40.462Z,1000.79
2016-10-20T00:44:02.190Z,1000.90
2016-10-20T00:44:23.927Z,1000.74
2016-10-20T00:44:45.655Z,1000.73
2016-10-20T00:45:07.370Z,1000.81
2016-10-20T00:45:29.143Z,1000.85
2016-10-20T00:45:50.874Z,1000.78
2016-10-20T00:46:12.590Z,1000.76
2016-10-20T00:46:34.311Z,1000.81
2016-10-20T00:46:56.035Z,1000.77
2016-10-20T00:47:17.751Z,1000.75
2016-10-20T00:47:39.476Z,1000.80
2016-10-20T00:48:01.200Z,1000.74
2016-10-20T00:48:22.917Z,1000.71
2016-10-20T00:48:44.640Z,1000.64
2016-10-20T00:49:06.360Z,1000.82
2016-10-20T00:49:28.083Z,1000.71
2016-10-20T00:49:49.801Z,1000.85
2016-10-20T00:50:11.520Z,1000.77
2016-10-20T00:50:33.255Z,1000.85
2016-10-20T00:50:54.982Z,1000.83
2016-10-20T00:51:16.721Z,1000.89
2016-10-20T00:51:38.448Z,1000.89
2016-10-20T00:52:00.165Z,1000.90
2016-10-20T00:52:21.892Z,1000.92
2016-10-20T00:52:43.610Z,1000.99
2016-10-20T00:53:05.329Z,1000.96
2016-10-20T00:53:27.049Z,1001.01
2016-10-20T00:53:48.767Z,1000.82
2016-10-20T00:54:10.488Z,1001.01
2016-10-20T00:54:32.215Z,1001.07
2016-10-20T00:54:53.928Z,1001.07
2016-10-20T00:55:15.648Z,1000.94
2016-10-20T00:55:37.368Z,1000.95
2016-10-20T00:55:59.091Z,1000.94
2016-10-20T00:56:20.823Z,1000.96
2016-10-20T00:56:42.547Z,1000.88
2016-10-20T00:57:04.264Z,1000.88
2016-10-20T00:57:25.982Z,1000.87
2016-10-20T00:57:47.701Z,1000.88
2016-10-20T00:58:09.421Z,1000.92
2016-10-20T00:58:31.143Z,1000.87
2016-10-20T00:58:57.640Z,1000.83
2016-10-20T00:59:19.357Z,1000.77
2016-10-20T00:59:41.071Z,1000.98
2016-10-20T01:00:02.795Z,1000.84
2016-10-20T01:00:24.513Z,1000.79
2016-10-20T01:00:46.241Z,1000.85
2016-10-20T01:01:07.966Z,1000.85
2016-10-20T01:01:29.693Z,1000.95
2016-10-20T01:01:51.449Z,1000.73
2016-10-20T01:02:13.145Z,1000.86
2016-10-20T01:02:34.869Z,1000.80
2016-10-20T01:02:56.593Z,1000.98
2016-10-20T01:03:18.316Z,1000.98
2016-10-20T01:03:44.805Z,1000.78
2016-10-20T01:04:06.526Z,1000.88
2016-10-20T01:04:28.256Z,1000.88
2016-10-20T01:04:49.974Z,1000.87
2016-10-20T01:05:11.707Z,1000.84
2016-10-20T01:05:33.426Z,1000.83
2016-10-20T01:05:55.139Z,1000.76
2016-10-20T01:06:16.861Z,1000.87
2016-10-20T01:06:38.576Z,1000.97
2016-10-20T01:07:00.298Z,1000.95
2016-10-20T01:07:22.019Z,1000.86
2016-10-20T01:07:43.739Z,1000.92
2016-10-20T01:08:05.458Z,1000.69
2016-10-20T01:08:27.180Z,1000.82
2016-10-20T01:08:48.904Z,1000.85
2016-10-20T01:09:10.631Z,1000.99
2016-10-20T01:09:32.357Z,1000.82
2016-10-20T01:09:54.087Z,1000.77
2016-10-20T01:10:15.807Z,1000.78
2016-10-20T01:10:37.525Z,1000.87
2016-10-20T01:10:59.246Z,1000.80
2016-10-20T01:11:25.732Z,1000.82
2016-10-20T01:11:57.497Z,1000.68
2016-10-20T01:12:19.220Z,1000.86
2016-10-20T01:12:40.945Z,1000.79
2016-10-20T01:13:02.663Z,1001.01
2016-10-20T01:13:24.376Z,1000.87
2016-10-20T01:13:46.112Z,1000.84
2016-10-20T01:14:07.833Z,1000.87
2016-10-20T01:14:29.563Z,1000.84
2016-10-20T01:14:51.290Z,1000.88
2016-10-20T01:15:13.002Z,1001.03
2016-10-20T01:15:34.731Z,1000.96
2016-10-20T01:15:56.482Z,1000.85
2016-10-20T01:16:18.200Z,1000.87
2016-10-20T01:16:39.932Z,1000.80
2016-10-20T01:17:01.664Z,1000.76
2016-10-20T01:17:23.387Z,1000.98
2016-10-20T01:17:45.105Z,1001.12
2016-10-20T01:18:06.822Z,1000.99
2016-10-20T01:18:28.540Z,1000.94
2016-10-20T01:18:50.265Z,1000.88
2016-10-20T01:19:11.978Z,1000.82
2016-10-20T01:19:33.699Z,1000.77
2016-10-20T01:19:55.424Z,1000.82
2016-10-20T01:20:17.176Z,1000.85
2016-10-20T01:20:38.894Z,1000.90
2016-10-20T01:21:00.623Z,1000.83
2016-10-20T01:21:22.331Z,1000.88
2016-10-20T01:21:44.055Z,1000.75
2016-10-20T01:22:05.784Z,1000.76
2016-10-20T01:22:27.503Z,1000.77
2016-10-20T01:22:49.222Z,1000.79
2016-10-20T01:23:10.940Z,1000.83
2016-10-20T01:23:32.660Z,1000.84
2016-10-20T01:23:54.414Z,1000.95
2016-10-20T01:24:16.132Z,1000.84
2016-10-20T01:24:37.856Z,1000.75
2016-10-20T01:24:59.579Z,1000.81
2016-10-20T01:25:21.288Z,1000.82
2016-10-20T01:25:43.025Z,1000.81
2016-10-20T01:26:04.754Z,1000.80
2016-10-20T01:26:26.466Z,1000.75
2016-10-20T01:26:48.191Z,1000.71
2016-10-20T01:27:12.722Z,1000.78
2016-10-20T01:27:34.441Z,1000.67
2016-10-20T01:27:56.166Z,1000.73
2016-10-20T01:28:17.919Z,1000.77
2016-10-20T01:28:39.637Z,1000.71
2016-10-20T01:29:01.358Z,1000.71
2016-10-20T01:29:23.076Z,1000.73
2016-10-20T01:29:44.803Z,1000.68
2016-10-20T01:30:06.523Z,1000.82
2016-10-20T01:30:28.267Z,1000.74
2016-10-20T01:30:49.986Z,1000.72
2016-10-20T01:31:11.709Z,1000.69
2016-10-20T01:31:33.444Z,1000.75
2016-10-20T01:31:55.160Z,1000.71
2016-10-20T01:32:16.882Z,1000.84
2016-10-20T01:32:38.628Z,1000.73
2016-10-20T01:33:00.341Z,1000.69
2016-10-20T01:33:22.059Z,1000.64
2016-10-20T01:33:43.780Z,1000.66
2016-10-20T01:34:05.504Z,1000.72
2016-10-20T01:34:27.227Z,1000.71
2016-10-20T01:34:48.947Z,1000.73
2016-10-20T01:35:10.670Z,1000.60
2016-10-20T01:35:32.394Z,1000.58
2016-10-20T01:35:54.115Z,1000.69
2016-10-20T01:36:15.839Z,1000.67
2016-10-20T01:36:37.565Z,1000.69
2016-10-20T01:36:59.284Z,1000.71
2016-10-20T01:37:47.514Z,1000.72
2016-10-20T01:38:09.254Z,1000.71
2016-10-20T01:38:30.975Z,1000.57
2016-10-20T01:38:52.694Z,1000.59
2016-10-20T01:39:14.411Z,1000.78
2016-10-20T01:39:36.131Z,1000.68
2016-10-20T01:39:57.847Z,1000.62
2016-10-20T01:40:19.564Z,1000.68
2016-10-20T01:40:41.291Z,1000.61
2016-10-20T01:41:03.017Z,1000.61
2016-10-20T01:41:24.742Z,1000.53
2016-10-20T01:41:46.465Z,1000.55
2016-10-20T01:42:08.185Z,1000.58
2016-10-20T01:42:29.902Z,1000.71
2016-10-20T01:42:51.638Z,1000.60
2016-10-20T01:43:13.356Z,1000.77
2016-10-20T01:43:35.072Z,1000.69
2016-10-20T01:43:56.792Z,1000.67
2016-10-20T01:44:18.522Z,1000.76
2016-10-20T01:44:40.245Z,1000.76
2016-10-20T01:45:06.733Z,1000.75
2016-10-20T01:45:28.483Z,1000.78
2016-10-20T01:45:50.194Z,1000.65
2016-10-20T01:46:11.922Z,1000.77
2016-10-20T01:46:33.641Z,1000.65
2016-10-20T01:46:55.370Z,1000.54
2016-10-20T01:47:17.088Z,1000.63
2016-10-20T01:47:38.807Z,1000.61
2016-10-20T01:48:00.529Z,1000.66
2016-10-20T01:48:22.245Z,1000.74
2016-10-20T01:48:43.960Z,1000.78
2016-10-20T01:49:05.694Z,1000.64
2016-10-20T01:49:27.413Z,1000.52
2016-10-20T01:49:49.131Z,1000.45
2016-10-20T01:50:15.622Z,1000.58
2016-10-20T01:50:52.386Z,1000.51
2016-10-20T01:51:14.103Z,1000.50
2016-10-20T01:51:35.815Z,1000.65
2016-10-20T01:51:57.536Z,1000.52
2016-10-20T01:52:19.254Z,1000.48
2016-10-20T01:52:40.988Z,1000.70
2016-10-20T01:53:02.705Z,1000.53
2016-10-20T01:53:24.424Z,1000.38
2016-10-20T01:53:46.142Z,1000.46
2016-10-20T01:54:07.860Z,1000.55
2016-10-20T01:54:29.575Z,1000.45
2016-10-20T01:54:51.292Z,1000.43
2016-10-20T01:55:13.019Z,1000.56
2016-10-20T01:55:34.735Z,1000.54
2016-10-20T01:55:56.457Z,1000.51
2016-10-20T01:56:18.178Z,1000.45
2016-10-20T01:56:39.907Z,1000.59
2016-10-20T01:57:01.626Z,1000.45
2016-10-20T01:57:23.346Z,1000.37
2016-10-20T01:57:45.071Z,1000.44
2016-10-20T01:58:06.790Z,1000.45
2016-10-20T01:58:28.511Z,1000.41
2016-10-20T01:58:50.243Z,1000.42
2016-10-20T01:59:14.686Z,1000.56
2016-10-20T01:59:36.415Z,1000.41
2016-10-20T01:59:58.135Z,1000.33
2016-10-20T02:00:19.850Z,1000.40
2016-10-20T02:00:41.588Z,1000.43
2016-10-20T02:01:03.318Z,1000.33
2016-10-20T02:01:25.031Z,1000.48
2016-10-20T02:01:46.762Z,1000.37
2016-10-20T02:02:08.489Z,1000.32
2016-10-20T02:02:30.207Z,1000.38
2016-10-20T02:02:51.919Z,1000.45
2016-10-20T02:03:13.640Z,1000.36
2016-10-20T02:03:35.363Z,1000.43
2016-10-20T02:03:57.083Z,1000.38
2016-10-20T02:04:18.804Z,1000.45
2016-10-20T02:04:40.526Z,1000.42
2016-10-20T02:05:02.247Z,1000.32
2016-10-20T02:05:23.971Z,1000.32
2016-10-20T02:05:45.691Z,1000.42
2016-10-20T02:06:07.415Z,1000.49
2016-10-20T02:06:29.132Z,1000.39
2016-10-20T02:06:50.863Z,1000.45
2016-10-20T02:07:12.584Z,1000.41
2016-10-20T02:07:34.302Z,1000.39
2016-10-20T02:07:56.022Z,1000.28
2016-10-20T02:08:17.739Z,1000.32
2016-10-20T02:08:39.460Z,1000.39
2016-10-20T02:09:01.178Z,1000.13
2016-10-20T02:09:22.904Z,1000.27
2016-10-20T02:09:44.629Z,1000.21
2016-10-20T02:10:06.346Z,1000.29
2016-10-20T02:10:30.850Z,1000.28
2016-10-20T02:10:52.556Z,1000.40
2016-10-20T02:11:14.286Z,1000.41
2016-10-20T02:11:40.778Z,1000.35
2016-10-20T02:12:02.495Z,1000.42
2016-10-20T02:12:24.216Z,1000.25
2016-10-20T02:12:45.937Z,1000.23
2016-10-20T02:13:07.659Z,1000.30
2016-10-20T02:13:29.404Z,1000.32
2016-10-20T02:13:51.124Z,1000.39
2016-10-20T02:14:12.853Z,1000.45
2016-10-20T02:14:34.573Z,1000.30
2016-10-20T02:14:56.303Z,1000.23
2016-10-20T02:15:18.029Z,1000.25
2016-10-20T02:15:39.753Z,1000.28
2016-10-20T02:16:01.471Z,1000.38
2016-10-20T02:16:23.190Z,1000.41
2016-10-20T02:16:44.910Z,1000.28
2016-10-20T02:17:06.625Z,1000.21
2016-10-20T02:17:28.358Z,1000.32
2016-10-20T02:17:50.096Z,1000.29
2016-10-20T02:18:11.818Z,1000.28
2016-10-20T02:18:33.534Z,1000.31
2016-10-20T02:18:55.254Z,1000.28
2016-10-20T02:19:16.969Z,1000.28
2016-10-20T02:19:38.684Z,1000.43
2016-10-20T02:20:00.406Z,1000.45
2016-10-20T02:20:22.132Z,1000.46
2016-10-20T02:20:43.852Z,1000.43
2016-10-20T02:21:05.582Z,1000.32
2016-10-20T02:21:27.304Z,1000.30
2016-10-20T02:21:49.026Z,1000.29
2016-10-20T02:22:10.753Z,1000.32
2016-10-20T02:22:32.469Z,1000.27
2016-10-20T02:22:54.211Z,1000.36
2016-10-20T02:23:15.941Z,1000.29
2016-10-20T02:23:37.666Z,1000.42
2016-10-20T02:23:59.379Z,1000.39
2016-10-20T02:24:22.100Z,1000.29
2016-10-20T02:24:43.820Z,1000.25
2016-10-20T02:25:05.537Z,1000.35
2016-10-20T02:25:27.262Z,1000.34
2016-10-20T02:25:48.987Z,1000.30
2016-10-20T02:26:10.710Z,1000.26
2016-10-20T02:26:32.445Z,1000.32
2016-10-20T02:26:54.184Z,1000.45
2016-10-20T02:27:15.903Z,1000.32
2016-10-20T02:27:37.627Z,1000.36
2016-10-20T02:27:59.347Z,1000.34
2016-10-20T02:28:21.076Z,1000.29
2016-10-20T02:28:42.793Z,1000.21
2016-10-20T02:29:04.531Z,1000.29
2016-10-20T02:29:26.247Z,1000.28
2016-10-20T02:29:47.970Z,1000.31
2016-10-20T02:30:09.689Z,1000.34
2016-10-20T02:30:31.420Z,1000.35
2016-10-20T02:30:53.161Z,1000.44
2016-10-20T02:31:14.884Z,1000.39
2016-10-20T02:31:41.394Z,1000.29
2016-10-20T02:32:03.112Z,1000.18
2016-10-20T02:32:24.825Z,1000.37
2016-10-20T02:32:46.547Z,1000.23
2016-10-20T02:33:08.274Z,1000.28
2016-10-20T02:33:29.990Z,1000.17
2016-10-20T02:33:51.716Z,1000.16
2016-10-20T02:34:13.427Z,1000.17
2016-10-20T02:34:35.160Z,1000.31
2016-10-20T02:34:56.881Z,1000.30
2016-10-20T02:35:18.601Z,1000.27
2016-10-20T02:35:40.328Z,1000.34
2016-10-20T02:36:02.063Z,1000.33
2016-10-20T02:36:23.786Z,1000.42
2016-10-20T02:36:45.522Z,1000.23
2016-10-20T02:37:07.258Z,1000.14
2016-10-20T02:37:28.954Z,1000.32
2016-10-20T02:37:50.672Z,1000.27
2016-10-20T02:38:12.396Z,1000.32
2016-10-20T02:38:34.121Z,1000.35
2016-10-20T02:38:55.841Z,1000.26
2016-10-20T02:39:17.557Z,1000.18
2016-10-20T02:39:39.343Z,1000.25
2016-10-20T02:40:01.069Z,1000.30
2016-10-20T02:40:22.798Z,1000.23
2016-10-20T02:40:44.516Z,1000.37
2016-10-20T02:41:06.235Z,1000.43
2016-10-20T02:41:27.973Z,1000.45
2016-10-20T02:41:49.707Z,1000.21
2016-10-20T02:42:11.418Z,1000.28
2016-10-20T02:42:33.134Z,1000.24
2016-10-20T02:42:54.854Z,1000.25
2016-10-20T02:43:16.577Z,1000.29
2016-10-20T02:43:38.300Z,1000.23
2016-10-20T02:44:00.032Z,1000.26
2016-10-20T02:44:21.753Z,1000.30
2016-10-20T02:44:43.469Z,1000.28
2016-10-20T02:45:05.188Z,1000.47
2016-10-20T02:45:26.933Z,1000.29
2016-10-20T02:45:48.644Z,1000.27
2016-10-20T02:46:10.365Z,1000.15
2016-10-20T02:46:32.088Z,1000.28
2016-10-20T02:46:53.810Z,1000.32
2016-10-20T02:47:15.529Z,1000.31
2016-10-20T02:47:37.244Z,1000.23
2016-10-20T02:47:58.966Z,1000.26
2016-10-20T02:48:20.694Z,1000.34
2016-10-20T02:48:42.414Z,1000.32
2016-10-20T02:49:04.135Z,1000.23
2016-10-20T02:49:25.858Z,1000.24
2016-10-20T02:49:47.575Z,1000.12
2016-10-20T02:50:09.288Z,1000.24
2016-10-20T02:50:31.023Z,1000.23
2016-10-20T02:50:52.736Z,1000.23
2016-10-20T02:51:14.469Z,1000.18
2016-10-20T02:51:36.189Z,1000.32
2016-10-20T02:51:57.969Z,1000.13
2016-10-20T02:52:19.698Z,1000.15
2016-10-20T02:52:41.445Z,1000.21
2016-10-20T02:53:03.175Z,1000.26
2016-10-20T02:53:24.940Z,1000.25
2016-10-20T02:53:46.627Z,1000.26
2016-10-20T02:54:08.346Z,1000.28
2016-10-20T02:54:30.067Z,1000.30
2016-10-20T02:54:51.785Z,1000.12
2016-10-20T02:55:13.514Z,1000.10
2016-10-20T02:55:35.226Z,1000.12
2016-10-20T02:55:56.960Z,1000.12
2016-10-20T02:56:18.679Z,1000.22
2016-10-20T02:56:40.402Z,1000.19
2016-10-20T02:57:02.121Z,1000.02
2016-10-20T02:57:23.841Z,1000.17
2016-10-20T02:57:45.572Z,1000.25
2016-10-20T02:58:07.292Z,1000.14
2016-10-20T02:58:29.010Z,1000.04
2016-10-20T02:58:50.729Z,1000.20
2016-10-20T02:59:12.447Z,1000.18
2016-10-20T02:59:34.200Z,1000.15
2016-10-20T03:00:00.689Z,1000.15
2016-10-20T03:00:25.328Z,1000.21
2016-10-20T03:00:47.046Z,1000.13
2016-10-20T03:01:08.784Z,1000.22
2016-10-20T03:01:30.515Z,1000.26
2016-10-20T03:01:52.235Z,1000.23
2016-10-20T03:02:13.958Z,1000.33
2016-10-20T03:02:35.677Z,1000.14
2016-10-20T03:02:57.396Z,1000.12
2016-10-20T03:03:19.114Z,1000.10
2016-10-20T03:03:40.831Z,1000.06
2016-10-20T03:04:02.563Z,1000.09
2016-10-20T03:04:24.280Z,1000.16
2016-10-20T03:04:46.004Z,1000.21
2016-10-20T03:05:07.721Z,1000.20
2016-10-20T03:05:29.441Z,1000.10
2016-10-20T03:05:51.164Z,999.99
2016-10-20T03:06:12.885Z,1000.13
2016-10-20T03:06:34.608Z,1000.18
2016-10-20T03:06:56.325Z,1000.18
2016-10-20T03:07:18.045Z,1000.09
2016-10-20T03:08:20.387Z,1000.07
2016-10-20T03:08:42.118Z,1000.06
2016-10-20T03:09:08.612Z,1000.18
2016-10-20T03:09:30.334Z,1000.08
2016-10-20T03:09:52.068Z,1000.10
2016-10-20T03:10:13.798Z,1000.06
2016-10-20T03:10:35.524Z,1000.01
2016-10-20T03:10:57.240Z,1000.03
2016-10-20T03:11:18.959Z,1000.16
2016-10-20T03:11:40.679Z,1000.20
2016-10-20T03:12:02.393Z,999.96
2016-10-20T03:12:24.112Z,1000.08
2016-10-20T03:12:45.844Z,999.95
2016-10-20T03:13:07.569Z,999.88
2016-10-20T03:13:29.286Z,999.96
2016-10-20T03:13:51.002Z,1000.04
2016-10-20T03:14:12.717Z,1000.13
2016-10-20T03:14:34.448Z,1000.13
2016-10-20T03:14:56.170Z,1000.23
2016-10-20T03:15:17.888Z,1000.11
2016-10-20T03:15:39.606Z,1000.01
2016-10-20T03:16:01.356Z,1000.13
2016-10-20T03:16:23.078Z,1000.02
2016-10-20T03:16:44.797Z,1000.03
2016-10-20T03:17:06.516Z,1000.04
2016-10-20T03:17:28.245Z,1000.01
2016-10-20T03:17:49.964Z,1000.08
2016-10-20T03:18:11.706Z,1000.01
2016-10-20T03:18:33.427Z,999.98
2016-10-20T03:18:55.144Z,1000.08
2016-10-20T03:19:16.866Z,1000.23
2016-10-20T03:19:38.585Z,1000.08
2016-10-20T03:20:00.324Z,999.94
2016-10-20T03:20:22.052Z,999.94
2016-10-20T03:20:43.902Z,999.95
2016-10-20T03:21:05.624Z,1000.02
2016-10-20T03:21:27.347Z,1000.08
2016-10-20T03:21:49.058Z,1000.12
2016-10-20T03:22:10.776Z,1000.13
2016-10-20T03:22:32.490Z,999.98
2016-10-20T03:22:54.221Z,999.97
2016-10-20T03:23:15.937Z,1000.06
2016-10-20T03:23:37.657Z,999.93
2016-10-20T03:23:59.381Z,1000.03
2016-10-20T03:24:21.115Z,1000.05
2016-10-20T03:24:42.831Z,1000.02
2016-10-20T03:25:35.747Z,1000.16
2016-10-20T03:25:57.477Z,1000.17
2016-10-20T03:26:19.196Z,1000.02
2016-10-20T03:26:40.924Z,999.90
2016-10-20T03:27:02.645Z,1000.05
2016-10-20T03:27:24.379Z,1000.04
2016-10-20T03:27:46.191Z,999.98
2016-10-20T03:28:07.924Z,1000.13
2016-10-20T03:28:29.644Z,1000.04
2016-10-20T03:28:51.365Z,999.98
2016-10-20T03:29:13.104Z,1000.02
2016-10-20T03:29:34.838Z,999.96
2016-10-20T03:29:56.584Z,999.94
2016-10-20T03:30:18.302Z,1000.02
2016-10-20T03:30:40.020Z,1000.00
2016-10-20T03:31:01.749Z,1000.09
2016-10-20T03:31:23.463Z,1000.04
2016-10-20T03:31:45.178Z,1000.06
2016-10-20T03:32:06.929Z,1000.04
2016-10-20T03:32:28.656Z,999.92
2016-10-20T03:32:50.377Z,999.88
2016-10-20T03:33:12.106Z,1000.00
2016-10-20T03:33:33.828Z,999.82
2016-10-20T03:33:55.551Z,1000.02
2016-10-20T03:34:17.266Z,999.99
2016-10-20T03:34:38.998Z,999.96
2016-10-20T03:35:00.745Z,999.86
2016-10-20T03:35:25.247Z,999.97
2016-10-20T03:35:49.774Z,1000.04
2016-10-20T03:36:14.302Z,999.95
2016-10-20T03:36:36.018Z,999.82
2016-10-20T03:36:57.741Z,999.80
2016-10-20T03:37:19.457Z,999.88
2016-10-20T03:37:41.177Z,999.90
2016-10-20T03:38:02.895Z,1000.08
2016-10-20T03:38:24.615Z,999.96
2016-10-20T03:38:46.349Z,999.80
2016-10-20T03:39:08.075Z,999.90
2016-10-20T03:39:29.786Z,999.80
2016-10-20T03:39:51.508Z,999.81
2016-10-20T03:40:39.751Z,999.98
2016-10-20T03:41:01.466Z,1000.04
2016-10-20T03:41:23.194Z,999.89
2016-10-20T03:41:44.913Z,999.96
2016-10-20T03:42:06.632Z,999.91
2016-10-20T03:42:28.350Z,999.86
2016-10-20T03:42:50.085Z,999.83
2016-10-20T03:43:11.813Z,999.77
2016-10-20T03:43:33.530Z,999.89
2016-10-20T03:43:55.257Z,999.99
2016-10-20T03:44:16.980Z,999.81
2016-10-20T03:44:38.699Z,999.83
2016-10-20T03:45:00.420Z,999.87
2016-10-20T03:45:51.423Z,999.95
2016-10-20T03:46:13.146Z,999.98
2016-10-20T03:46:34.871Z,999.88
2016-10-20T03:46:56.605Z,999.94
2016-10-20T03:47:18.325Z,999.92
2016-10-20T03:47:40.049Z,999.87
2016-10-20T03:48:01.771Z,999.78
2016-10-20T03:48:23.491Z,999.85
2016-10-20T03:48:45.218Z,999.83
2016-10-20T03:49:06.937Z,999.86
2016-10-20T03:49:28.665Z,999.74
2016-10-20T03:49:50.378Z,999.85
2016-10-20T03:50:12.097Z,999.88
2016-10-20T03:51:09.667Z,999.77
2016-10-20T03:51:31.384Z,999.95
2016-10-20T03:51:53.107Z,999.95
2016-10-20T03:52:14.827Z,999.93
2016-10-20T03:52:36.544Z,999.84
2016-10-20T03:52:58.267Z,999.76
2016-10-20T03:53:19.984Z,999.74
2016-10-20T03:53:41.704Z,999.79
2016-10-20T03:54:03.424Z,999.84
2016-10-20T03:54:25.160Z,999.83
2016-10-20T03:54:51.648Z,999.84
2016-10-20T03:55:13.372Z,999.77
2016-10-20T03:55:35.222Z,999.66
2016-10-20T03:55:56.813Z,999.80
2016-10-20T03:56:18.565Z,999.77
2016-10-20T03:56:40.286Z,999.83
2016-10-20T03:57:02.007Z,999.73
2016-10-20T03:57:23.729Z,999.65
2016-10-20T03:57:45.445Z,999.81
2016-10-20T03:58:07.171Z,999.65
2016-10-20T03:58:28.899Z,999.72
2016-10-20T03:58:50.629Z,999.70
2016-10-20T03:59:12.363Z,999.72
2016-10-20T03:59:34.101Z,999.75
2016-10-20T03:59:55.814Z,999.67
2016-10-20T04:00:17.547Z,999.68
2016-10-20T04:00:39.264Z,999.88
2016-10-20T04:01:00.989Z,999.72
2016-10-20T04:01:22.703Z,999.73
2016-10-20T04:01:44.428Z,999.66
2016-10-20T04:02:06.147Z,999.76
2016-10-20T04:02:27.871Z,999.68
2016-10-20T04:02:49.602Z,999.72
2016-10-20T04:03:11.319Z,999.75
2016-10-20T04:03:33.037Z,999.72
2016-10-20T04:03:54.748Z,999.76
2016-10-20T04:04:16.465Z,999.78
2016-10-20T04:04:38.207Z,999.85
2016-10-20T04:04:59.934Z,999.74
2016-10-20T04:05:21.669Z,999.85
2016-10-20T04:05:43.389Z,999.79
2016-10-20T04:06:05.115Z,999.90
2016-10-20T04:06:26.831Z,999.79
2016-10-20T04:06:48.565Z,999.90
2016-10-20T04:07:10.300Z,999.83
2016-10-20T04:07:32.019Z,999.85
2016-10-20T04:07:53.746Z,999.82
2016-10-20T04:08:15.469Z,999.84
2016-10-20T04:08:37.191Z,999.80
2016-10-20T04:08:58.908Z,999.86
2016-10-20T04:09:20.670Z,999.75
2016-10-20T04:09:42.389Z,999.81
2016-10-20T04:10:04.128Z,999.89
2016-10-20T04:10:25.854Z,999.87
2016-10-20T04:10:47.574Z,999.83
2016-10-20T04:11:09.298Z,999.79
2016-10-20T04:11:31.017Z,999.85
2016-10-20T04:11:52.737Z,999.80
2016-10-20T04:12:14.466Z,999.72
2016-10-20T04:12:36.188Z,999.82
2016-10-20T04:12:57.907Z,999.82
2016-10-20T04:13:19.634Z,999.87
2016-10-20T04:13:41.370Z,999.96
2016-10-20T04:14:03.096Z,999.87
2016-10-20T04:14:24.812Z,999.89
2016-10-20T04:14:46.532Z,999.79
2016-10-20T04:15:08.251Z,999.74
2016-10-20T04:15:29.966Z,999.86
2016-10-20T04:15:51.684Z,999.89
2016-10-20T04:16:13.427Z,999.76
2016-10-20T04:16:35.145Z,999.81
2016-10-20T04:16:56.897Z,999.91
2016-10-20T04:17:18.622Z,999.87
2016-10-20T04:17:40.340Z,999.81
2016-10-20T04:18:02.062Z,999.74
2016-10-20T04:18:23.774Z,999.80
2016-10-20T04:18:45.492Z,999.76
2016-10-20T04:19:07.210Z,999.82
2016-10-20T04:19:28.925Z,999.90
2016-10-20T04:19:50.664Z,999.93
2016-10-20T04:20:12.385Z,999.79
2016-10-20T04:20:34.103Z,999.90
2016-10-20T04:20:55.828Z,999.88
2016-10-20T04:21:17.569Z,999.81
2016-10-20T04:21:39.289Z,999.74
2016-10-20T04:22:01.017Z,999.85
2016-10-20T04:22:22.733Z,999.80
2016-10-20T04:22:44.452Z,999.92
2016-10-20T04:23:06.169Z,999.85
2016-10-20T04:23:27.888Z,999.69
2016-10-20T04:23:49.607Z,999.70
2016-10-20T04:24:11.327Z,999.68
2016-10-20T04:24:33.054Z,999.72
2016-10-20T04:24:54.805Z,999.77
2016-10-20T04:25:16.527Z,999.65
2016-10-20T04:25:38.246Z,999.68
2016-10-20T04:25:59.973Z,999.65
2016-10-20T04:26:24.469Z,999.73
2016-10-20T04:26:46.186Z,999.78
2016-10-20T04:27:07.908Z,999.76
2016-10-20T04:27:29.625Z,999.67
2016-10-20T04:27:51.345Z,999.61
2016-10-20T04:28:13.061Z,999.70
2016-10-20T04:28:34.794Z,999.77
2016-10-20T04:28:56.509Z,999.76
2016-10-20T04:29:18.239Z,999.80
2016-10-20T04:29:39.951Z,999.80
2016-10-20T04:30:01.679Z,999.78